Terminal Aerodrome Forecast
Issued by NWS

Home | Current Version | Previous Version | Text Only | Print | Product List | Glossary On
Versions: 1 2 3 4 5 6 7 8 9 10 11 12 13
000
FTUS42 KMLB 272025 AAA
TAFSFB
TAF AMD
KSFB 272025Z 2720/2818 17011G17KT P6SM FEW060
     FM272100 12011KT P6SM FEW050
     FM280300 15005KT P6SM FEW040
     FM281400 18009KT P6SM FEW030=

USA.gov is the U.S. government's official web portal to all federal, state and local government web resources and services.